createdAt,value
2022-07-28T00:02:38.092Z,99.90
2022-07-28T00:07:40.635Z,99.90
2022-07-28T00:12:43.132Z,99.90
2022-07-28T00:17:45.696Z,99.90
2022-07-28T00:22:48.282Z,99.90
2022-07-28T00:27:50.842Z,99.90
2022-07-28T00:32:53.440Z,99.90
2022-07-28T00:37:55.914Z,99.90
2022-07-28T00:42:58.746Z,99.90
2022-07-28T00:48:01.188Z,99.90
2022-07-28T00:53:03.913Z,99.90
2022-07-28T00:58:07.839Z,99.90
2022-07-28T01:03:10.692Z,99.90
2022-07-28T01:08:38.349Z,99.90
2022-07-28T01:14:11.241Z,99.90
2022-07-28T01:19:34.255Z,99.90
2022-07-28T01:25:07.511Z,99.90
2022-07-28T01:30:22.229Z,99.90
2022-07-28T01:35:46.331Z,99.90
2022-07-28T01:40:50.433Z,99.90
2022-07-28T01:45:56.225Z,99.90
2022-07-28T01:50:59.141Z,99.90
2022-07-28T01:56:04.317Z,99.90
2022-07-28T02:01:07.766Z,99.90
2022-07-28T02:06:12.315Z,99.90
2022-07-28T02:11:33.229Z,99.90
2022-07-28T02:16:36.215Z,99.90
2022-07-28T02:21:39.676Z,99.90
2022-07-28T02:27:06.881Z,99.90
2022-07-28T02:32:26.910Z,99.90
2022-07-28T02:37:37.859Z,99.90
2022-07-28T02:42:42.090Z,99.90
2022-07-28T02:47:48.906Z,99.90
2022-07-28T02:52:53.886Z,99.90
2022-07-28T02:57:58.451Z,99.90
2022-07-28T03:03:01.550Z,99.90
2022-07-28T03:08:04.218Z,99.90
2022-07-28T03:13:07.328Z,99.90
2022-07-28T03:18:10.147Z,99.90
2022-07-28T03:23:13.161Z,99.90
2022-07-28T03:28:19.878Z,99.90
2022-07-28T03:33:23.317Z,99.90
2022-07-28T03:38:41.818Z,99.90
2022-07-28T03:43:44.862Z,99.90
2022-07-28T03:48:47.788Z,99.90
2022-07-28T03:53:50.619Z,99.90
2022-07-28T03:58:53.095Z,99.90
2022-07-28T04:03:55.745Z,99.90
2022-07-28T04:08:58.317Z,99.90
2022-07-28T04:14:00.918Z,99.90
2022-07-28T04:19:03.893Z,99.90
2022-07-28T04:24:08.906Z,99.90
2022-07-28T04:29:11.492Z,99.90
2022-07-28T04:34:15.497Z,99.90
2022-07-28T04:39:18.395Z,99.90
2022-07-28T04:44:23.321Z,99.90
2022-07-28T04:49:26.527Z,99.90
2022-07-28T04:54:30.532Z,99.90
2022-07-28T04:59:33.296Z,99.90
2022-07-28T05:04:36.026Z,99.90
2022-07-28T05:09:38.545Z,99.90
2022-07-28T05:14:41.128Z,99.90
2022-07-28T05:19:43.823Z,99.90
2022-07-28T05:24:46.415Z,99.90
2022-07-28T05:29:49.987Z,99.90
2022-07-28T05:34:54.051Z,99.90
2022-07-28T05:39:56.536Z,99.90
2022-07-28T05:44:59.069Z,99.90
2022-07-28T05:50:02.395Z,99.90
2022-07-28T05:55:06.896Z,99.90
2022-07-28T06:00:12.407Z,99.90
2022-07-28T06:05:17.334Z,99.90
2022-07-28T06:10:22.360Z,99.90
2022-07-28T06:15:27.134Z,99.90
2022-07-28T06:20:30.309Z,99.90
2022-07-28T06:25:32.956Z,99.90
2022-07-28T06:30:35.591Z,99.90
2022-07-28T06:35:48.217Z,99.90
2022-07-28T06:40:54.125Z,99.90
2022-07-28T06:45:56.637Z,99.90
2022-07-28T06:50:59.841Z,99.90
2022-07-28T06:56:04.288Z,99.90
2022-07-28T07:01:07.936Z,99.90
2022-07-28T07:06:11.219Z,98.50
2022-07-28T07:11:13.889Z,98.90
2022-07-28T07:16:16.699Z,97.80
2022-07-28T07:21:22.584Z,98.00
2022-07-28T07:26:25.509Z,97.90
2022-07-28T07:31:28.072Z,98.00
2022-07-28T07:36:30.779Z,95.60
2022-07-28T07:41:34.254Z,95.90
2022-07-28T07:46:38.699Z,97.30
2022-07-28T07:51:41.369Z,95.80
2022-07-28T07:56:43.931Z,96.50
2022-07-28T08:01:50.799Z,95.30
2022-07-28T08:06:53.791Z,94.40
2022-07-28T08:11:57.406Z,94.10
2022-07-28T08:17:00.386Z,91.90
2022-07-28T08:22:03.057Z,91.50
2022-07-28T08:27:05.817Z,92.60
2022-07-28T08:32:08.489Z,91.20
2022-07-28T08:37:11.108Z,92.30
2022-07-28T08:42:34.469Z,92.10
2022-07-28T08:47:51.972Z,92.40
2022-07-28T08:53:01.397Z,93.70
2022-07-28T08:58:04.678Z,90.10
2022-07-28T09:03:07.848Z,89.20
2022-07-28T09:08:12.539Z,90.40
2022-07-28T09:13:19.374Z,91.60
2022-07-28T09:18:21.969Z,88.60
2022-07-28T09:23:42.468Z,90.00
2022-07-28T09:28:58.307Z,92.50
2022-07-28T09:34:05.314Z,90.40
2022-07-28T09:39:08.518Z,90.80
2022-07-28T09:44:21.944Z,87.60
2022-07-28T09:49:43.409Z,90.20
2022-07-28T09:55:05.030Z,90.30
2022-07-28T10:00:11.885Z,84.80
2022-07-28T10:05:14.511Z,91.90
2022-07-28T10:10:21.092Z,89.00
2022-07-28T10:15:46.731Z,90.20
2022-07-28T10:20:53.873Z,89.80
2022-07-28T10:25:58.349Z,89.50
2022-07-28T10:31:03.054Z,87.20
2022-07-28T10:36:07.082Z,84.80
2022-07-28T10:41:11.686Z,86.00
2022-07-28T10:46:16.622Z,86.00
2022-07-28T10:51:21.416Z,86.80
2022-07-28T10:56:48.199Z,86.00
2022-07-28T11:01:50.928Z,81.70
2022-07-28T11:07:13.630Z,85.10
2022-07-28T11:12:16.831Z,88.10
2022-07-28T11:17:24.410Z,81.90
2022-07-28T11:22:36.257Z,85.10
2022-07-28T11:27:46.769Z,82.70
2022-07-28T11:32:55.095Z,82.80
2022-07-28T11:38:03.905Z,81.70
2022-07-28T11:43:22.343Z,79.40
2022-07-28T11:48:26.439Z,77.30
2022-07-28T11:53:53.952Z,77.20
2022-07-28T11:59:02.088Z,74.70
2022-07-28T12:04:15.813Z,76.50
2022-07-28T12:09:23.491Z,76.00
2022-07-28T12:14:30.136Z,74.30
2022-07-28T12:19:33.155Z,80.90
2022-07-28T12:24:45.666Z,77.40
2022-07-28T12:29:59.626Z,74.80
2022-07-28T12:35:02.721Z,77.00
2022-07-28T12:40:07.991Z,72.20
2022-07-28T12:45:10.956Z,74.20
2022-07-28T12:50:19.996Z,77.10
2022-07-28T12:55:25.053Z,72.70
2022-07-28T13:00:31.406Z,74.20
2022-07-28T13:05:59.034Z,75.20
2022-07-28T13:11:01.645Z,73.20
2022-07-28T13:16:24.492Z,73.50
2022-07-28T13:21:56.642Z,71.50
2022-07-28T13:27:02.528Z,72.90
2022-07-28T13:32:05.349Z,73.00
2022-07-28T13:37:08.529Z,71.10
2022-07-28T13:42:14.342Z,71.10
2022-07-28T13:47:17.187Z,72.00
2022-07-28T13:52:32.477Z,70.30
2022-07-28T13:58:15.466Z,73.10
2022-07-28T14:03:18.038Z,70.60
2022-07-28T14:08:21.168Z,71.10
2022-07-28T14:13:31.535Z,73.40
2022-07-28T14:18:40.695Z,72.30
2022-07-28T14:23:43.520Z,71.20
2022-07-28T14:28:46.042Z,70.20
2022-07-28T14:33:54.262Z,70.90
2022-07-28T14:38:57.499Z,69.30
2022-07-28T14:44:00.253Z,68.30
2022-07-28T14:49:02.971Z,68.40
2022-07-28T14:54:05.631Z,66.40
2022-07-28T14:59:08.346Z,67.20
2022-07-28T15:04:12.675Z,68.10
2022-07-28T15:09:15.670Z,66.70
2022-07-28T15:14:20.464Z,66.50
2022-07-28T15:19:24.012Z,67.40
2022-07-28T15:24:30.593Z,66.10
2022-07-28T15:29:35.375Z,67.30
2022-07-28T15:34:38.402Z,68.90
2022-07-28T15:39:45.017Z,67.20
2022-07-28T15:44:49.324Z,66.90
2022-07-28T15:49:52.099Z,71.20
2022-07-28T15:54:55.475Z,71.70
2022-07-28T15:59:57.971Z,70.50
2022-07-28T16:05:01.232Z,69.90
2022-07-28T16:10:04.325Z,71.30
2022-07-28T16:15:07.423Z,76.10
2022-07-28T16:20:10.665Z,74.50
2022-07-28T16:25:16.942Z,71.50
2022-07-28T16:30:20.194Z,70.40
2022-07-28T16:35:22.734Z,72.20
2022-07-28T16:40:27.382Z,70.80
2022-07-28T16:45:31.289Z,71.60
2022-07-28T16:50:34.476Z,72.80
2022-07-28T16:55:37.420Z,75.00
2022-07-28T17:00:40.062Z,75.70
2022-07-28T17:05:43.439Z,69.70
2022-07-28T17:10:47.205Z,65.60
2022-07-28T17:15:49.865Z,64.80
2022-07-28T17:20:52.528Z,64.20
2022-07-28T17:26:40.580Z,64.40
2022-07-28T17:31:17.758Z,66.20
2022-07-28T17:36:20.507Z,67.60
2022-07-28T17:41:22.999Z,70.80
2022-07-28T17:46:26.477Z,72.50
2022-07-28T17:51:30.838Z,74.70
2022-07-28T17:56:33.475Z,75.60
2022-07-28T18:01:38.291Z,76.90
2022-07-28T18:06:44.728Z,78.90
2022-07-28T18:11:56.692Z,79.20
2022-07-28T18:17:01.168Z,80.90
2022-07-28T18:22:03.876Z,82.50
2022-07-28T18:27:06.988Z,84.60
2022-07-28T18:32:09.828Z,86.50
2022-07-28T18:37:18.352Z,88.30
2022-07-28T18:42:20.877Z,91.80
2022-07-28T18:47:25.157Z,91.80
2022-07-28T18:52:27.801Z,92.60
2022-07-28T18:57:30.570Z,92.70
2022-07-28T19:02:33.291Z,99.00
2022-07-28T19:07:36.245Z,99.90
2022-07-28T19:12:38.922Z,99.60
2022-07-28T19:17:41.508Z,99.80
2022-07-28T19:22:43.954Z,99.90
2022-07-28T19:27:46.510Z,99.90
2022-07-28T19:32:48.955Z,99.90
2022-07-28T19:37:51.423Z,99.90
2022-07-28T19:42:54.022Z,99.90
2022-07-28T19:47:56.546Z,99.90
2022-07-28T19:52:59.393Z,99.90
2022-07-28T19:58:03.891Z,99.90
2022-07-28T20:03:59.772Z,99.90
2022-07-28T20:08:31.284Z,99.90
2022-07-28T20:13:34.117Z,99.90
2022-07-28T20:18:36.756Z,99.90
2022-07-28T20:23:41.014Z,99.90
2022-07-28T20:28:44.185Z,99.90
2022-07-28T20:33:47.441Z,99.90
2022-07-28T20:38:50.030Z,99.90
2022-07-28T20:44:18.333Z,99.90
2022-07-28T20:49:15.393Z,99.90
2022-07-28T20:54:18.940Z,99.90
2022-07-28T20:59:27.213Z,99.90
2022-07-28T21:04:30.335Z,99.90
2022-07-28T21:09:33.491Z,99.90
2022-07-28T21:14:36.062Z,99.90
2022-07-28T21:19:38.663Z,99.90
2022-07-28T21:24:41.191Z,99.90
2022-07-28T21:29:43.756Z,99.90
2022-07-28T21:34:46.587Z,99.90
2022-07-28T21:39:49.039Z,99.90
2022-07-28T21:44:51.734Z,99.90
2022-07-28T21:49:54.198Z,99.90
2022-07-28T21:54:58.929Z,99.90
2022-07-28T22:00:02.228Z,99.90
2022-07-28T22:05:05.272Z,99.90
2022-07-28T22:10:08.225Z,99.90
2022-07-28T22:15:11.162Z,99.90
2022-07-28T22:20:13.824Z,99.90
2022-07-28T22:25:16.571Z,99.90
2022-07-28T22:30:19.495Z,99.90
2022-07-28T22:35:22.330Z,99.90
2022-07-28T22:40:25.189Z,99.90
2022-07-28T22:45:50.447Z,99.90
2022-07-28T22:50:50.530Z,99.90
2022-07-28T22:55:53.069Z,99.90
2022-07-28T23:00:55.678Z,99.90
2022-07-28T23:06:00.158Z,99.90
2022-07-28T23:11:02.911Z,99.90
2022-07-28T23:16:09.046Z,99.90
2022-07-28T23:21:12.569Z,99.90
2022-07-28T23:26:15.114Z,99.90
2022-07-28T23:31:17.966Z,99.90
2022-07-28T23:36:27.090Z,99.90
2022-07-28T23:41:30.544Z,99.90
2022-07-28T23:46:33.247Z,99.90
2022-07-28T23:51:48.089Z,99.90
2022-07-28T23:56:52.580Z,99.90
